CFC6 weather

Rockyford Airport
Rockyford, Alberta, Canada

Public forecast

Using degrees Celsius for public forecast. Weather courtesy of forecast.io.

Closest aviation weather report (METAR) to Rockyford Airport

Closest report is Calgary International Airport, 35.2 nm (65.2 km) WSW. Retrieved 2019/11/15 22:00 UTC (44 minutes ago):

CYYC 152200Z 29015G25KT 30SM FEW080 FEW100 FEW120 BKN160 11/M03 A2963 RMK AC1AC1AC1AC7 AC TR AC TR AC TR SLP045 DENSITY ALT 4400FT

Closest aviation forecast (TAF) to Rockyford Airport

Closest forecast is Calgary International Airport, 35.2 nm (65.2 km) WSW. Retrieved 2019/11/15 21:47 UTC (57 minutes ago):

TAF CYYC 152043Z 1521/1618 22007KT P6SM FEW050 BKN150 BECMG 1521/1522 30010G20KT FM160400 34010G20KT P6SM SCT030 BKN080 OVC120 TEMPO 1604/1610 P6SM -SHRA BKN030 FM161000 30008KT P6SM BKN080 BKN150 FM161700 28010KT P6SM SCT080 RMK NXT FCST BY 160000Z